Time;durP1;ratioP1;P1;durP2;ratioP2;P2;SDS_P1;SDS_P2;PMS_P1;PMS_P2;Temp;Humidity;BMP_temperature;BMP_pressure;BME280_temperature;BME280_humidity;BME280_pressure;Samples;Min_cycle;Max_cycle;Signal;HPM_P1;HPM_P2
2023/11/19 00:02:21;;;;;;;41.03;18.55;;;0.40;99.90;;;;;;5038206;28;20146;-79
2023/11/19 00:04:47;;;;;;;34.70;18.50;;;0.30;99.90;;;;;;4971770;28;20070;-80
2023/11/19 00:07:13;;;;;;;32.33;17.45;;;0.30;99.90;;;;;;4971741;28;20034;-76
2023/11/19 00:09:40;;;;;;;36.47;20.25;;;0.40;99.90;;;;;;4971529;28;20444;-76
2023/11/19 00:12:06;;;;;;;35.08;18.63;;;0.30;99.90;;;;;;4971398;28;20023;-78
2023/11/19 00:14:33;;;;;;;37.20;20.10;;;0.40;99.90;;;;;;4971367;28;20019;-79
2023/11/19 00:16:58;;;;;;;45.83;22.67;;;0.30;99.90;;;;;;5053370;28;20013;-80
2023/11/19 00:19:24;;;;;;;56.83;23.90;;;0.20;99.90;;;;;;5038073;28;20015;-76
2023/11/19 00:21:50;;;;;;;41.42;19.55;;;0.30;99.90;;;;;;4971361;28;20380;-80
2023/11/19 00:24:17;;;;;;;35.33;18.75;;;0.30;99.90;;;;;;4971176;28;20030;-80
2023/11/19 00:26:43;;;;;;;37.58;17.23;;;0.30;99.90;;;;;;5037702;28;20054;-80
2023/11/19 00:29:08;;;;;;;42.85;19.35;;;0.30;99.90;;;;;;4971334;28;20026;-80
2023/11/19 00:31:35;;;;;;;38.38;18.63;;;0.30;99.90;;;;;;5038195;28;20562;-76
2023/11/19 00:34:01;;;;;;;38.22;18.60;;;0.20;99.90;;;;;;4971352;28;20102;-80
2023/11/19 00:36:28;;;;;;;34.58;17.98;;;0.30;99.90;;;;;;4971423;28;20034;-76
2023/11/19 00:38:54;;;;;;;39.78;18.95;;;0.30;99.90;;;;;;4971240;28;20027;-76
2023/11/19 00:41:20;;;;;;;38.33;18.67;;;0.30;99.90;;;;;;5037832;28;20039;-80
2023/11/19 00:43:46;;;;;;;35.80;18.13;;;0.30;99.90;;;;;;5037675;28;20456;-78
2023/11/19 00:46:11;;;;;;;35.63;17.05;;;0.20;99.90;;;;;;4971043;28;20148;-80
2023/11/19 00:48:37;;;;;;;40.72;16.30;;;0.20;99.90;;;;;;5037655;28;20018;-80
2023/11/19 00:51:04;;;;;;;35.65;16.80;;;0.20;99.90;;;;;;4970896;28;20038;-76
2023/11/19 00:53:30;;;;;;;33.65;16.60;;;0.20;99.90;;;;;;5037724;28;20023;-75
2023/11/19 00:55:56;;;;;;;37.35;18.65;;;0.20;99.90;;;;;;5037614;28;20126;-79
2023/11/19 00:58:21;;;;;;;34.50;17.15;;;0.20;99.90;;;;;;5037699;28;20068;-80
2023/11/19 01:00:47;;;;;;;37.85;17.75;;;0.20;99.90;;;;;;4970939;28;20035;-76
2023/11/19 01:03:14;;;;;;;38.88;18.38;;;0.20;99.90;;;;;;4958494;28;20039;-76
2023/11/19 01:05:40;;;;;;;35.60;17.75;;;0.20;99.90;;;;;;4971005;28;20035;-76
2023/11/19 01:08:06;;;;;;;36.22;17.35;;;0.30;99.90;;;;;;4970819;28;20038;-80
2023/11/19 01:10:32;;;;;;;34.50;16.80;;;0.30;99.90;;;;;;5037535;28;20015;-80
2023/11/19 01:12:57;;;;;;;33.75;18.92;;;0.30;99.90;;;;;;5037436;28;20388;-75
2023/11/19 01:15:23;;;;;;;34.63;17.40;;;0.30;99.90;;;;;;4970782;28;20468;-79
2023/11/19 01:17:49;;;;;;;40.63;18.35;;;0.30;99.90;;;;;;5037221;28;20066;-80
2023/11/19 01:20:14;;;;;;;37.13;17.55;;;0.30;99.90;;;;;;4970804;28;20031;-76
2023/11/19 01:22:40;;;;;;;36.50;17.40;;;0.30;99.90;;;;;;5037710;28;20015;-78
2023/11/19 01:25:07;;;;;;;36.83;17.38;;;0.30;99.90;;;;;;4971697;28;20039;-76
2023/11/19 01:27:36;;;;;;;45.95;20.25;;;0.30;99.90;;;;;;5041264;28;20054;-80
2023/11/19 01:30:09;;;;;;;42.05;20.92;;;0.30;99.90;;;;;;4973915;28;20380;-80
2023/11/19 01:32:36;;;;;;;44.78;22.40;;;0.30;99.90;;;;;;5038331;28;20382;-80
2023/11/19 01:35:03;;;;;;;47.75;22.00;;;0.30;99.90;;;;;;4969379;28;20476;-80
2023/11/19 01:37:29;;;;;;;38.63;18.20;;;0.40;99.90;;;;;;5041343;28;20454;-76
2023/11/19 01:39:55;;;;;;;38.28;18.88;;;0.40;99.90;;;;;;4973840;28;20023;-80
2023/11/19 01:42:20;;;;;;;41.53;19.90;;;0.40;99.90;;;;;;4974001;28;20027;-80
2023/11/19 01:44:59;;;;;;;37.83;18.05;;;0.30;99.90;;;;;;5040908;28;20042;-76
2023/11/19 01:47:26;;;;;;;43.42;20.20;;;0.30;99.90;;;;;;5041184;28;20123;-76
2023/11/19 01:49:52;;;;;;;43.05;20.85;;;0.30;99.90;;;;;;5040772;28;21064;-76
2023/11/19 01:52:20;;;;;;;36.50;18.55;;;0.30;99.90;;;;;;5041170;28;20075;-75
2023/11/19 01:54:46;;;;;;;33.85;18.30;;;0.20;99.90;;;;;;5040915;28;20023;-76
2023/11/19 01:57:13;;;;;;;38.30;18.25;;;0.10;99.90;;;;;;5040883;28;20060;-80
2023/11/19 01:59:38;;;;;;;39.97;19.60;;;0.10;99.90;;;;;;4973713;28;20110;-75
2023/11/19 02:02:05;;;;;;;38.35;18.35;;;0.10;99.90;;;;;;5040269;28;20603;-76
2023/11/19 02:04:32;;;;;;;38.03;19.10;;;0.10;99.90;;;;;;5040704;28;20027;-80
2023/11/19 02:06:58;;;;;;;36.40;16.98;;;0.10;99.90;;;;;;4973653;28;20030;-76
2023/11/19 02:09:24;;;;;;;35.45;15.52;;;0.10;99.90;;;;;;4973309;28;20026;-76
2023/11/19 02:11:51;;;;;;;33.38;15.77;;;0.10;99.90;;;;;;5040382;28;20122;-76
2023/11/19 02:14:17;;;;;;;36.72;17.25;;;0.10;99.90;;;;;;5040159;28;20132;-76
2023/11/19 02:16:44;;;;;;;37.33;18.17;;;0.10;99.90;;;;;;4973392;28;20053;-80
2023/11/19 02:19:10;;;;;;;38.53;18.77;;;0.20;99.90;;;;;;4973423;28;20026;-76
2023/11/19 02:21:37;;;;;;;35.30;18.02;;;0.20;99.90;;;;;;4973518;28;20460;-76
2023/11/19 02:24:06;;;;;;;33.22;17.05;;;0.20;99.90;;;;;;5039863;28;20510;-76
2023/11/19 02:26:39;;;;;;;31.98;17.63;;;0.20;99.90;;;;;;4973340;28;20027;-76
2023/11/19 02:29:06;;;;;;;;;;;0.20;99.90;;;;;;5040619;28;20039;-80
2023/11/19 02:31:32;;;;;;;35.92;17.58;;;0.20;99.90;;;;;;4973388;28;20288;-80
2023/11/19 02:34:00;;;;;;;38.58;19.73;;;0.20;99.90;;;;;;4972959;28;20026;-79
2023/11/19 02:36:26;;;;;;;32.03;16.27;;;0.20;99.90;;;;;;4972924;28;20022;-75
2023/11/19 02:38:52;;;;;;;29.15;16.38;;;0.20;99.90;;;;;;5039976;28;20038;-76
2023/11/19 02:41:17;;;;;;;31.83;16.38;;;0.20;99.90;;;;;;5040094;28;20030;-75
2023/11/19 02:43:43;;;;;;;29.98;15.70;;;0.10;99.90;;;;;;5039841;28;20023;-80
2023/11/19 02:46:09;;;;;;;27.92;13.73;;;0.10;99.90;;;;;;4972935;28;20042;-76
2023/11/19 02:48:35;;;;;;;25.88;13.02;;;0.10;99.90;;;;;;5039616;28;20023;-80
2023/11/19 02:51:03;;;;;;;32.40;15.30;;;0.10;99.90;;;;;;4972944;28;20034;-80
2023/11/19 02:53:29;;;;;;;32.50;14.82;;;0.10;99.90;;;;;;5038939;28;20173;-77
2023/11/19 02:56:01;;;;;;;29.65;14.60;;;0.10;99.90;;;;;;5045840;28;20610;-75
2023/11/19 02:58:28;;;;;;;24.45;13.90;;;0.10;99.90;;;;;;4966053;28;20026;-79
2023/11/19 03:01:09;;;;;;;31.45;15.20;;;0.10;99.90;;;;;;4972637;28;20034;-75
2023/11/19 03:03:38;;;;;;;31.95;15.35;;;0.10;99.90;;;;;;4972753;28;20035;-80
2023/11/19 03:06:08;;;;;;;33.08;15.43;;;0.00;99.90;;;;;;4972519;28;21754;-76
2023/11/19 03:08:35;;;;;;;34.63;15.60;;;0.00;99.90;;;;;;5039548;28;20038;-75
2023/11/19 03:11:02;;;;;;;35.20;16.42;;;0.00;99.90;;;;;;4972649;28;20101;-76
2023/11/19 03:13:27;;;;;;;34.20;15.50;;;0.00;99.90;;;;;;5039658;28;20019;-75
2023/11/19 03:15:53;;;;;;;39.42;18.80;;;-0.10;99.90;;;;;;4972368;28;20030;-76
2023/11/19 03:18:20;;;;;;;34.55;16.05;;;0.00;99.90;;;;;;5055889;28;20027;-76
2023/11/19 03:20:49;;;;;;;34.00;16.70;;;0.00;99.90;;;;;;5038983;28;20034;-80
2023/11/19 03:23:15;;;;;;;37.25;17.92;;;0.00;99.90;;;;;;4972530;28;20051;-79
2023/11/19 03:25:41;;;;;;;34.45;17.73;;;0.00;99.90;;;;;;4972269;28;20070;-75
2023/11/19 03:28:06;;;;;;;38.33;17.17;;;0.10;99.90;;;;;;4972336;28;20052;-76
2023/11/19 03:30:32;;;;;;;34.25;16.70;;;0.10;99.90;;;;;;5026471;28;20027;-75
2023/11/19 03:32:59;;;;;;;31.58;16.70;;;0.10;99.90;;;;;;5038998;28;20019;-80
2023/11/19 03:35:25;;;;;;;31.83;14.77;;;0.10;99.90;;;;;;4970583;28;20045;-75
2023/11/19 03:37:51;;;;;;;31.75;15.10;;;0.10;99.90;;;;;;5038460;28;20473;-75
2023/11/19 03:40:18;;;;;;;32.40;16.00;;;0.10;99.90;;;;;;5034723;28;20031;-80
2023/11/19 03:42:45;;;;;;;31.50;16.42;;;0.10;99.90;;;;;;5025773;28;20029;-75
2023/11/19 03:45:10;;;;;;;34.28;16.27;;;0.10;99.90;;;;;;5038316;28;20035;-76
2023/11/19 03:47:36;;;;;;;32.88;15.68;;;0.20;99.90;;;;;;5038199;28;20049;-80
2023/11/19 03:50:02;;;;;;;31.67;16.13;;;0.20;99.90;;;;;;4972002;28;20102;-75
2023/11/19 03:52:31;;;;;;;27.95;16.02;;;0.20;99.90;;;;;;5038497;28;20046;-79
2023/11/19 03:54:57;;;;;;;28.17;14.00;;;0.20;99.90;;;;;;4971828;28;20419;-76
2023/11/19 03:57:24;;;;;;;34.38;15.32;;;0.20;99.90;;;;;;5038736;28;20023;-76
2023/11/19 03:59:50;;;;;;;28.40;14.60;;;0.30;99.90;;;;;;5038294;28;20072;-79
2023/11/19 04:02:17;;;;;;;26.38;13.23;;;0.20;99.90;;;;;;4971581;28;20055;-75
2023/11/19 04:04:43;;;;;;;26.98;14.32;;;0.20;99.90;;;;;;4971738;28;20626;-80
2023/11/19 04:07:09;;;;;;;23.52;12.45;;;0.20;99.90;;;;;;4971747;28;20108;-79
2023/11/19 04:09:35;;;;;;;22.77;11.18;;;0.20;99.90;;;;;;4971880;28;20065;-80
2023/11/19 04:12:01;;;;;;;20.50;11.65;;;0.10;99.90;;;;;;4971549;28;20790;-79
2023/11/19 04:14:27;;;;;;;19.60;10.68;;;0.10;99.90;;;;;;4971682;28;20072;-79
2023/11/19 04:16:53;;;;;;;19.73;11.10;;;0.10;99.90;;;;;;5038062;28;20420;-75
2023/11/19 04:19:19;;;;;;;24.30;13.43;;;0.10;99.90;;;;;;4971685;28;20481;-80
2023/11/19 04:21:46;;;;;;;19.77;11.80;;;0.20;99.90;;;;;;5038023;28;20483;-76
2023/11/19 04:24:12;;;;;;;25.60;12.88;;;0.20;99.90;;;;;;4971533;28;20486;-75
2023/11/19 04:26:45;;;;;;;24.73;11.82;;;0.20;99.90;;;;;;5038003;28;20056;-75
2023/11/19 04:29:19;;;;;;;19.40;11.00;;;0.30;99.90;;;;;;5038356;28;20117;-79
2023/11/19 04:31:45;;;;;;;19.65;10.35;;;0.30;99.90;;;;;;4971405;28;20027;-76
2023/11/19 04:34:11;;;;;;;20.92;10.35;;;0.30;99.90;;;;;;4971480;28;20026;-79
2023/11/19 04:36:37;;;;;;;20.25;10.15;;;0.30;99.90;;;;;;5037622;28;20072;-75
2023/11/19 04:39:12;;;;;;;19.42;9.82;;;0.20;99.90;;;;;;5038148;28;20534;-80
2023/11/19 04:41:54;;;;;;;21.42;10.35;;;0.20;99.90;;;;;;4971140;28;20019;-75
2023/11/19 04:44:20;;;;;;;18.27;10.98;;;0.20;99.90;;;;;;5037272;28;20077;-76
2023/11/19 04:46:46;;;;;;;18.02;9.75;;;0.20;99.90;;;;;;5037811;28;20473;-80
2023/11/19 04:49:16;;;;;;;20.08;10.10;;;0.20;99.90;;;;;;4970947;28;20045;-76
2023/11/19 04:51:45;;;;;;;16.95;9.80;;;0.20;99.90;;;;;;5037827;28;20069;-75
2023/11/19 04:54:11;;;;;;;20.33;10.63;;;0.20;99.90;;;;;;5037743;28;20049;-76
2023/11/19 04:56:37;;;;;;;21.17;11.23;;;0.20;99.90;;;;;;5037973;28;20019;-76
2023/11/19 04:59:05;;;;;;;19.85;9.38;;;0.20;99.90;;;;;;5037323;28;20053;-75
2023/11/19 05:01:31;;;;;;;22.90;12.30;;;0.20;99.90;;;;;;5036567;28;20026;-80
2023/11/19 05:03:59;;;;;;;20.20;11.20;;;0.20;99.90;;;;;;4970763;28;20070;-75
2023/11/19 05:06:27;;;;;;;22.08;10.57;;;0.20;99.90;;;;;;4970983;28;20022;-80
2023/11/19 05:08:53;;;;;;;20.83;10.80;;;0.20;99.90;;;;;;4970902;28;20392;-80
2023/11/19 05:11:19;;;;;;;18.85;10.85;;;0.20;99.90;;;;;;5037579;28;20412;-79
2023/11/19 05:13:45;;;;;;;20.35;11.05;;;0.10;99.90;;;;;;4970699;28;20034;-80
2023/11/19 05:16:14;;;;;;;20.42;11.90;;;0.10;99.90;;;;;;4971006;28;20031;-75
2023/11/19 05:18:40;;;;;;;23.42;10.65;;;0.10;99.90;;;;;;5037424;28;20122;-79
2023/11/19 05:21:06;;;;;;;23.27;12.63;;;0.10;99.90;;;;;;5037467;28;20019;-75
2023/11/19 05:23:33;;;;;;;22.00;12.85;;;0.00;99.90;;;;;;5037015;28;20114;-80
2023/11/19 05:26:00;;;;;;;21.27;11.80;;;0.00;99.90;;;;;;4970778;28;20114;-75
2023/11/19 05:28:26;;;;;;;27.00;12.25;;;0.00;99.90;;;;;;4970493;28;20018;-79
2023/11/19 05:30:51;;;;;;;23.17;11.35;;;-0.10;99.90;;;;;;4970791;28;20102;-79
2023/11/19 05:33:17;;;;;;;20.58;11.52;;;-0.10;99.90;;;;;;4970637;28;20476;-80
2023/11/19 05:35:43;;;;;;;20.63;11.40;;;-0.10;99.90;;;;;;4970766;28;20015;-79
2023/11/19 05:38:09;;;;;;;21.80;12.05;;;-0.10;99.90;;;;;;4970539;28;20354;-79
2023/11/19 05:40:35;;;;;;;23.67;12.95;;;-0.10;99.90;;;;;;4971122;28;20023;-75
2023/11/19 05:43:01;;;;;;;22.50;10.70;;;-0.20;99.90;;;;;;5036627;28;20073;-79
2023/11/19 05:45:26;;;;;;;22.67;13.02;;;-0.20;99.90;;;;;;5037219;28;20035;-79
2023/11/19 05:47:52;;;;;;;25.88;12.43;;;-0.20;99.90;;;;;;5036771;28;20488;-80
2023/11/19 05:50:18;;;;;;;26.80;13.40;;;-0.30;99.90;;;;;;4970542;28;20030;-76
2023/11/19 05:52:44;;;;;;;28.25;14.45;;;-0.30;99.90;;;;;;5036645;28;20062;-79
2023/11/19 05:55:10;;;;;;;28.45;14.25;;;-0.30;99.90;;;;;;4970472;28;20062;-76
2023/11/19 05:57:37;;;;;;;29.05;13.52;;;-0.30;99.90;;;;;;5036850;28;20507;-75
2023/11/19 06:00:06;;;;;;;25.65;13.23;;;-0.30;99.90;;;;;;4970614;28;20034;-76
2023/11/19 06:02:32;;;;;;;24.48;12.52;;;-0.30;99.90;;;;;;5036519;28;20039;-79
2023/11/19 06:04:58;;;;;;;28.15;14.50;;;-0.40;99.90;;;;;;4970309;28;20039;-75
2023/11/19 06:07:24;;;;;;;25.85;12.57;;;-0.40;99.90;;;;;;4970005;28;20035;-76
2023/11/19 06:09:50;;;;;;;30.30;14.23;;;-0.40;99.90;;;;;;5037052;28;20034;-80
2023/11/19 06:12:16;;;;;;;29.08;14.07;;;-0.40;99.90;;;;;;4972714;28;20102;-79
2023/11/19 06:14:42;;;;;;;27.33;13.27;;;-0.40;99.90;;;;;;4973606;28;20034;-79
2023/11/19 06:17:08;;;;;;;27.00;12.85;;;-0.40;99.90;;;;;;4973060;28;20102;-80
2023/11/19 06:19:34;;;;;;;30.05;14.80;;;-0.40;99.90;;;;;;4973657;28;20034;-75
2023/11/19 06:22:00;;;;;;;28.70;13.65;;;-0.40;99.90;;;;;;4973047;28;20027;-79
2023/11/19 06:24:25;;;;;;;27.42;14.20;;;-0.40;99.90;;;;;;4973335;28;20049;-75
2023/11/19 06:26:51;;;;;;;29.80;13.95;;;-0.30;99.90;;;;;;5040076;28;20138;-79
2023/11/19 06:29:19;;;;;;;29.02;14.88;;;-0.30;99.90;;;;;;5040367;28;20496;-79
2023/11/19 06:31:45;;;;;;;26.20;13.52;;;-0.30;99.90;;;;;;5039817;28;20011;-76
2023/11/19 06:34:11;;;;;;;30.45;13.20;;;-0.30;99.90;;;;;;5040408;28;20377;-79
2023/11/19 06:36:37;;;;;;;26.00;12.95;;;-0.30;99.90;;;;;;4972327;28;20038;-79
2023/11/19 06:39:03;;;;;;;27.35;13.90;;;-0.30;99.90;;;;;;5009485;28;20027;-75
2023/11/19 06:41:29;;;;;;;27.98;13.90;;;-0.20;99.90;;;;;;4972655;28;20118;-76
2023/11/19 06:43:55;;;;;;;30.35;14.25;;;-0.20;99.90;;;;;;5035316;28;20121;-76
2023/11/19 06:46:20;;;;;;;28.58;15.40;;;-0.20;99.90;;;;;;4972842;28;20027;-76
2023/11/19 06:48:46;;;;;;;24.85;13.57;;;-0.20;99.90;;;;;;4973219;28;20030;-79
2023/11/19 06:51:12;;;;;;;30.08;13.95;;;-0.20;99.90;;;;;;4972418;28;20038;-80
2023/11/19 06:53:39;;;;;;;50.50;15.70;;;-0.20;99.90;;;;;;4973164;28;20030;-79
2023/11/19 06:56:07;;;;;;;24.70;12.93;;;-0.10;99.90;;;;;;4972816;28;20069;-77
2023/11/19 06:58:36;;;;;;;30.00;14.18;;;-0.10;99.90;;;;;;4973008;28;20026;-80
2023/11/19 07:01:02;;;;;;;31.70;14.88;;;-0.10;99.90;;;;;;5039100;28;20015;-76
2023/11/19 07:03:27;;;;;;;27.10;14.05;;;-0.10;99.90;;;;;;5052921;28;20045;-76
2023/11/19 07:05:54;;;;;;;27.83;14.68;;;-0.10;99.90;;;;;;5052911;28;20039;-79
2023/11/19 07:08:20;;;;;;;31.52;13.73;;;-0.10;99.90;;;;;;5054622;28;20029;-79
2023/11/19 07:10:47;;;;;;;27.80;15.05;;;-0.10;99.90;;;;;;5054145;28;20017;-79
2023/11/19 07:13:12;;;;;;;32.47;15.05;;;-0.10;99.90;;;;;;5054475;28;20016;-80
2023/11/19 07:15:38;;;;;;;27.45;14.95;;;-0.10;99.90;;;;;;5053004;28;20112;-80
2023/11/19 07:18:04;;;;;;;30.70;15.35;;;0.00;99.90;;;;;;5053114;28;20017;-76
2023/11/19 07:20:31;;;;;;;31.30;15.15;;;0.00;99.90;;;;;;5052703;28;20048;-76
2023/11/19 07:22:56;;;;;;;33.20;15.48;;;0.00;99.90;;;;;;5035533;28;20064;-79
2023/11/19 07:25:23;;;;;;;32.78;15.82;;;0.10;99.90;;;;;;5052714;28;20051;-80
2023/11/19 07:27:49;;;;;;;29.05;15.25;;;0.10;99.90;;;;;;5054261;28;20096;-76
2023/11/19 07:30:14;;;;;;;35.15;15.85;;;0.10;99.90;;;;;;5052411;28;20112;-79
2023/11/19 07:32:40;;;;;;;36.42;17.67;;;0.20;99.90;;;;;;5052676;28;20059;-76
2023/11/19 07:35:06;;;;;;;36.88;18.10;;;0.20;99.90;;;;;;5052660;28;20028;-76
2023/11/19 07:37:32;;;;;;;36.90;15.45;;;0.20;99.90;;;;;;5052227;28;20028;-76
2023/11/19 07:39:58;;;;;;;35.20;16.58;;;0.30;99.90;;;;;;5053338;28;20033;-76
2023/11/19 07:42:23;;;;;;;37.63;17.30;;;0.30;99.90;;;;;;5052634;28;20016;-76
2023/11/19 07:44:49;;;;;;;33.03;16.35;;;0.40;99.90;;;;;;5053357;28;20498;-76
2023/11/19 07:47:15;;;;;;;29.60;14.50;;;0.40;99.90;;;;;;5052164;28;20021;-74
2023/11/19 07:49:41;;;;;;;29.02;14.68;;;0.40;99.90;;;;;;5052801;28;20074;-75
2023/11/19 07:52:07;;;;;;;33.00;15.32;;;0.40;99.90;;;;;;5043853;28;20025;-75
2023/11/19 07:54:32;;;;;;;35.33;15.75;;;0.40;99.90;;;;;;5053031;28;20096;-75
2023/11/19 07:56:58;;;;;;;34.97;16.02;;;0.40;99.90;;;;;;5052927;28;20108;-75
2023/11/19 07:59:23;;;;;;;33.75;16.27;;;0.40;99.90;;;;;;5051745;28;20055;-75
2023/11/19 08:01:49;;;;;;;35.63;17.90;;;0.40;99.90;;;;;;5040396;28;20053;-75
2023/11/19 08:04:15;;;;;;;31.45;15.60;;;0.50;99.90;;;;;;5037489;28;20045;-75
2023/11/19 08:06:41;;;;;;;29.77;15.32;;;0.60;99.90;;;;;;4971810;28;20025;-75
2023/11/19 08:09:06;;;;;;;32.00;16.33;;;0.60;99.90;;;;;;5038179;28;20448;-75
2023/11/19 08:11:33;;;;;;;32.42;15.57;;;0.70;99.90;;;;;;5034573;28;20015;-75
2023/11/19 08:13:59;;;;;;;30.25;14.82;;;0.70;99.90;;;;;;4970756;28;20426;-73
2023/11/19 08:16:24;;;;;;;28.15;15.32;;;0.80;99.90;;;;;;4971448;28;20025;-74
2023/11/19 08:18:50;;;;;;;32.15;17.55;;;0.80;99.90;;;;;;5038396;28;20026;-74
2023/11/19 08:21:16;;;;;;;33.08;16.42;;;0.90;99.90;;;;;;5038023;28;20042;-73
2023/11/19 08:23:42;;;;;;;33.88;16.20;;;0.90;99.90;;;;;;5038174;28;20088;-74
2023/11/19 08:26:07;;;;;;;34.53;16.83;;;1.00;99.90;;;;;;5037717;28;20038;-73
2023/11/19 08:28:34;;;;;;;31.48;16.00;;;1.00;99.90;;;;;;5038096;28;20015;-73
2023/11/19 08:31:00;;;;;;;31.55;15.73;;;1.00;99.90;;;;;;4971150;28;20030;-73
2023/11/19 08:33:27;;;;;;;27.63;15.10;;;1.00;99.90;;;;;;5037533;28;20023;-73
2023/11/19 08:35:52;;;;;;;48.53;24.13;;;1.00;99.90;;;;;;5037522;28;20038;-73
2023/11/19 08:38:18;;;;;;;33.90;17.73;;;1.00;99.90;;;;;;4970649;28;20019;-72
2023/11/19 08:40:44;;;;;;;30.08;16.05;;;1.00;99.90;;;;;;4970984;28;20035;-73
2023/11/19 08:43:09;;;;;;;35.30;18.35;;;1.10;99.90;;;;;;5001117;28;20031;-73
2023/11/19 08:45:36;;;;;;;34.17;16.67;;;1.10;99.90;;;;;;5037209;28;20038;-73
2023/11/19 08:48:01;;;;;;;33.72;15.52;;;1.20;99.90;;;;;;4971318;28;20034;-78
2023/11/19 08:50:27;;;;;;;36.13;16.55;;;1.20;99.90;;;;;;4970838;28;20041;-78
2023/11/19 08:52:53;;;;;;;27.27;14.57;;;1.20;99.90;;;;;;4970853;28;20055;-79
2023/11/19 08:55:18;;;;;;;32.60;16.80;;;1.30;99.90;;;;;;5036662;28;20068;-74
2023/11/19 08:57:45;;;;;;;32.97;19.20;;;1.30;99.90;;;;;;5037644;28;20385;-79
2023/11/19 09:00:13;;;;;;;29.98;15.95;;;1.30;99.90;;;;;;4969988;28;20023;-79
2023/11/19 09:02:39;;;;;;;29.00;14.82;;;1.30;99.90;;;;;;4970686;28;20078;-79
2023/11/19 09:05:09;;;;;;;28.73;13.75;;;1.30;99.90;;;;;;5037258;28;20070;-75
2023/11/19 09:07:34;;;;;;;30.63;16.02;;;1.40;99.90;;;;;;5037154;28;20014;-78
2023/11/19 09:10:00;;;;;;;36.03;17.90;;;1.40;99.90;;;;;;4970715;28;20893;-79
2023/11/19 09:12:25;;;;;;;28.23;14.55;;;1.40;99.90;;;;;;5036943;28;20424;-74
2023/11/19 09:14:51;;;;;;;37.78;18.38;;;1.40;99.90;;;;;;5029385;28;20489;-74
2023/11/19 09:17:17;;;;;;;29.73;16.55;;;1.50;99.90;;;;;;4970549;28;20023;-74
2023/11/19 09:19:43;;;;;;;47.33;22.92;;;1.50;99.90;;;;;;4970516;28;20027;-74
2023/11/19 09:22:09;;;;;;;33.35;15.75;;;1.50;99.90;;;;;;5037005;28;20035;-75
2023/11/19 09:24:35;;;;;;;104.43;43.60;;;1.60;99.90;;;;;;4964704;28;20039;-74
2023/11/19 09:27:00;;;;;;;105.50;46.65;;;1.60;99.90;;;;;;4970297;28;20023;-74
2023/11/19 09:29:26;;;;;;;37.58;18.80;;;1.60;99.90;;;;;;4970621;28;20030;-74
2023/11/19 09:31:51;;;;;;;32.10;16.10;;;1.70;99.90;;;;;;4970641;28;20023;-78
2023/11/19 09:34:17;;;;;;;26.75;14.30;;;1.80;99.90;;;;;;4979799;28;20031;-79
2023/11/19 09:36:44;;;;;;;34.67;17.08;;;1.80;99.90;;;;;;4970284;28;20023;-79
2023/11/19 09:39:17;;;;;;;24.73;14.35;;;1.90;99.90;;;;;;4969562;28;20068;-79
2023/11/19 09:41:47;;;;;;;45.00;19.20;;;2.00;99.90;;;;;;4970572;28;20023;-79
2023/11/19 09:44:14;;;;;;;42.20;19.08;;;2.10;99.90;;;;;;4970072;28;20022;-79
2023/11/19 09:46:41;;;;;;;35.50;17.02;;;2.20;99.90;;;;;;5038464;28;20031;-79
2023/11/19 09:49:09;;;;;;;29.75;14.20;;;2.20;99.90;;;;;;4973457;28;20039;-79
2023/11/19 09:51:36;;;;;;;36.35;14.60;;;2.30;99.90;;;;;;5040800;28;20023;-79
2023/11/19 09:54:02;;;;;;;29.33;14.02;;;2.30;99.90;;;;;;4973548;28;20027;-78
2023/11/19 09:56:32;;;;;;;27.05;13.93;;;2.40;99.90;;;;;;4973283;28;20014;-79
2023/11/19 09:58:59;;;;;;;24.25;12.50;;;2.50;99.90;;;;;;5040420;28;20401;-75
2023/11/19 10:01:25;;;;;;;25.58;13.65;;;2.60;99.90;;;;;;4973950;28;20023;-78
2023/11/19 10:03:54;;;;;;;26.77;16.27;;;2.70;99.90;;;;;;4972203;28;20094;-74
2023/11/19 10:06:20;;;;;;;28.52;16.20;;;2.70;99.90;;;;;;5039884;28;20042;-78
2023/11/19 10:08:46;;;;;;;34.47;17.17;;;2.70;99.90;;;;;;4973777;28;20027;-79
2023/11/19 10:11:12;;;;;;;25.02;14.18;;;2.70;99.90;;;;;;4973816;28;20050;-78
2023/11/19 10:13:39;;;;;;;25.45;15.57;;;2.70;99.90;;;;;;4973578;28;20050;-74
2023/11/19 10:16:12;;;;;;;23.33;13.25;;;2.80;99.90;;;;;;5040519;28;20026;-75
2023/11/19 10:18:42;;;;;;;24.10;12.98;;;2.80;99.90;;;;;;5038755;28;20023;-75
2023/11/19 10:21:16;;;;;;;24.23;13.40;;;2.80;99.90;;;;;;5037627;28;20030;-74
2023/11/19 10:24:02;;;;;;;26.48;12.23;;;2.90;99.90;;;;;;5037130;28;20027;-78
2023/11/19 10:26:28;;;;;;;21.05;11.70;;;2.90;99.90;;;;;;4970092;28;20043;-79
2023/11/19 10:28:55;;;;;;;22.58;12.13;;;2.90;99.90;;;;;;4970817;28;20027;-78
2023/11/19 10:31:25;;;;;;;26.50;13.50;;;2.90;99.90;;;;;;4970748;28;20056;-74
2023/11/19 10:33:51;;;;;;;19.08;11.40;;;2.90;99.90;;;;;;5039288;28;20023;-76
2023/11/19 10:36:17;;;;;;;18.83;11.52;;;2.90;99.90;;;;;;4972714;28;20023;-78
2023/11/19 10:38:56;;;;;;;23.98;13.18;;;2.90;99.90;;;;;;5040120;28;20582;-78
2023/11/19 10:41:30;;;;;;;21.25;11.45;;;2.80;99.90;;;;;;5039831;28;20023;-74
2023/11/19 10:43:56;;;;;;;19.98;10.80;;;2.80;99.90;;;;;;4973247;28;20023;-74
2023/11/19 10:46:23;;;;;;;16.83;10.45;;;2.80;99.90;;;;;;4972967;28;20472;-77
2023/11/19 10:48:49;;;;;;;22.63;10.55;;;2.80;99.90;;;;;;5039114;28;20390;-74
2023/11/19 10:51:22;;;;;;;25.15;12.20;;;2.80;99.90;;;;;;4972667;28;20019;-74
2023/11/19 10:53:50;;;;;;;21.48;12.18;;;2.80;99.90;;;;;;4973219;28;20031;-79
2023/11/19 10:56:19;;;;;;;21.25;11.13;;;2.80;99.90;;;;;;4972752;28;20019;-74
2023/11/19 10:58:46;;;;;;;17.55;10.00;;;2.80;99.90;;;;;;5040028;28;20015;-76
2023/11/19 11:01:23;;;;;;;18.80;9.82;;;2.80;99.90;;;;;;5039565;28;20027;-74
2023/11/19 11:03:53;;;;;;;24.45;14.23;;;2.80;99.90;;;;;;4972860;28;20058;-74
2023/11/19 11:06:19;;;;;;;24.13;12.77;;;2.80;99.90;;;;;;4972891;28;20445;-74
2023/11/19 11:08:46;;;;;;;17.33;9.48;;;2.80;99.90;;;;;;5039568;28;20102;-74
2023/11/19 11:11:15;;;;;;;16.05;10.32;;;2.70;99.90;;;;;;5039586;28;20110;-78
2023/11/19 11:13:43;;;;;;;19.42;11.57;;;2.70;99.90;;;;;;4972505;28;20029;-74
2023/11/19 11:16:09;;;;;;;17.30;8.85;;;2.60;99.90;;;;;;4972676;28;20035;-74
2023/11/19 11:18:34;;;;;;;17.55;10.18;;;2.50;99.90;;;;;;4972352;28;20029;-79
2023/11/19 11:21:05;;;;;;;18.60;10.73;;;2.50;99.90;;;;;;4972596;28;20031;-79
2023/11/19 11:23:30;;;;;;;22.60;12.35;;;2.50;99.90;;;;;;5039203;28;20373;-77
2023/11/19 11:26:14;;;;;;;22.05;12.75;;;2.40;99.90;;;;;;5039084;28;20152;-79
2023/11/19 11:29:05;;;;;;;23.73;12.80;;;2.30;99.90;;;;;;5039190;28;20043;-74
2023/11/19 11:31:49;;;;;;;24.50;14.40;;;2.30;99.90;;;;;;5039126;28;20031;-74
2023/11/19 11:34:38;;;;;;;20.45;10.57;;;2.20;99.90;;;;;;5039453;28;20117;-77
2023/11/19 11:37:13;;;;;;;18.88;10.10;;;2.20;99.90;;;;;;4975330;28;20416;-81
2023/11/19 11:39:40;;;;;;;22.55;11.45;;;2.10;99.90;;;;;;4972246;28;20023;-78
2023/11/19 11:42:21;;;;;;;22.52;12.32;;;2.10;99.90;;;;;;4972216;28;20034;-74
2023/11/19 11:45:08;;;;;;;19.55;11.73;;;2.00;99.90;;;;;;4972118;28;20073;-74
2023/11/19 11:47:46;;;;;;;18.23;10.70;;;1.90;99.90;;;;;;5038676;28;20038;-76
2023/11/19 11:50:18;;;;;;;22.73;11.95;;;1.90;99.90;;;;;;5038785;28;20026;-79
2023/11/19 11:52:58;;;;;;;19.52;11.35;;;1.70;99.90;;;;;;4971813;28;20066;-74
2023/11/19 11:55:24;;;;;;;24.50;11.77;;;1.70;99.90;;;;;;4972015;28;20062;-78
2023/11/19 11:57:49;;;;;;;22.83;12.40;;;1.60;99.90;;;;;;4971431;28;20431;-74
2023/11/19 12:00:26;;;;;;;24.60;13.63;;;1.60;99.90;;;;;;4972021;28;20027;-79
2023/11/19 12:02:51;;;;;;;28.23;13.75;;;1.60;99.90;;;;;;4971556;28;20051;-74
2023/11/19 12:05:17;;;;;;;26.98;14.05;;;1.60;99.90;;;;;;4971861;28;20039;-79
2023/11/19 12:07:55;;;;;;;22.48;13.15;;;1.60;99.90;;;;;;5038656;28;20388;-74
2023/11/19 12:10:21;;;;;;;31.17;16.45;;;1.60;99.90;;;;;;4971907;28;20362;-74
2023/11/19 12:12:47;;;;;;;21.38;12.50;;;1.50;99.90;;;;;;5038503;28;20023;-79
2023/11/19 12:15:14;;;;;;;21.23;13.02;;;1.50;99.90;;;;;;5037900;28;20034;-75
2023/11/19 12:17:50;;;;;;;25.10;12.45;;;1.50;99.90;;;;;;4971871;28;20114;-79
2023/11/19 12:20:21;;;;;;;25.23;13.38;;;1.50;99.90;;;;;;4971613;28;20023;-79
2023/11/19 12:22:49;;;;;;;37.28;20.75;;;1.50;99.90;;;;;;4971734;28;20038;-75
2023/11/19 12:25:19;;;;;;;40.33;22.33;;;1.40;99.90;;;;;;4971435;28;20393;-74
2023/11/19 12:27:47;;;;;;;36.72;19.92;;;1.40;99.90;;;;;;5038345;28;20029;-74
2023/11/19 12:30:16;;;;;;;26.73;14.95;;;1.40;99.90;;;;;;5037623;28;20022;-74
2023/11/19 12:32:44;;;;;;;26.70;14.48;;;1.40;99.90;;;;;;5038422;28;20027;-75
2023/11/19 12:35:13;;;;;;;32.38;18.13;;;1.40;99.90;;;;;;5032292;28;20027;-74
2023/11/19 12:37:44;;;;;;;41.22;22.15;;;1.40;99.90;;;;;;4964939;28;20031;-74